sensor_id;sensor_type;location;lat;lon;timestamp;pressure;altitude;pressure_sealevel;temperature
75431;BMP280;64127;51.488;5.462;2022-10-16T00:01:34;100824.19;;;16.72
75431;BMP280;64127;51.488;5.462;2022-10-16T00:04:07;100820.69;;;16.73
75431;BMP280;64127;51.488;5.462;2022-10-16T00:06:40;100828.63;;;16.75
75431;BMP280;64127;51.488;5.462;2022-10-16T00:09:12;100811.81;;;16.70
75431;BMP280;64127;51.488;5.462;2022-10-16T00:11:43;100812.66;;;16.67
75431;BMP280;64127;51.488;5.462;2022-10-16T00:14:16;100809.03;;;16.62
75431;BMP280;64127;51.488;5.462;2022-10-16T00:16:48;100818.75;;;16.63
75431;BMP280;64127;51.488;5.462;2022-10-16T00:19:20;100823.16;;;16.64
75431;BMP280;64127;51.488;5.462;2022-10-16T00:21:52;100822.31;;;16.65
75431;BMP280;64127;51.488;5.462;2022-10-16T00:24:24;100815.31;;;16.67
75431;BMP280;64127;51.488;5.462;2022-10-16T00:26:55;100819.69;;;16.68
75431;BMP280;64127;51.488;5.462;2022-10-16T00:29:27;100810.00;;;16.69
75431;BMP280;64127;51.488;5.462;2022-10-16T00:31:59;100810.00;;;16.67
75431;BMP280;64127;51.488;5.462;2022-10-16T00:34:31;100810.88;;;16.66
75431;BMP280;64127;51.488;5.462;2022-10-16T00:37:03;100806.44;;;16.65
75431;BMP280;64127;51.488;5.462;2022-10-16T00:39:35;100816.97;;;16.62
75431;BMP280;64127;51.488;5.462;2022-10-16T00:42:15;100822.22;;;16.59
75431;BMP280;64127;51.488;5.462;2022-10-16T00:44:56;100822.16;;;16.56
75431;BMP280;64127;51.488;5.462;2022-10-16T00:47:54;100827.47;;;16.56
75431;BMP280;64127;51.488;5.462;2022-10-16T00:50:33;100831.91;;;16.57
75431;BMP280;64127;51.488;5.462;2022-10-16T00:53:06;100828.28;;;16.54
75431;BMP280;64127;51.488;5.462;2022-10-16T00:55:38;100827.34;;;16.50
75431;BMP280;64127;51.488;5.462;2022-10-16T00:58:13;100827.25;;;16.47
75431;BMP280;64127;51.488;5.462;2022-10-16T01:00:45;100821.97;;;16.46
75431;BMP280;64127;51.488;5.462;2022-10-16T01:03:31;100822.81;;;16.45
75431;BMP280;64127;51.488;5.462;2022-10-16T01:09:37;100822.81;;;16.43
75431;BMP280;64127;51.488;5.462;2022-10-16T01:16:16;100813.06;;;16.42
75431;BMP280;64127;51.488;5.462;2022-10-16T01:22:02;100819.16;;;16.37
75431;BMP280;64127;51.488;5.462;2022-10-16T01:24:42;100817.38;;;16.37
75431;BMP280;64127;51.488;5.462;2022-10-16T01:27:25;100820.88;;;16.33
75431;BMP280;64127;51.488;5.462;2022-10-16T01:30:10;100818.22;;;16.33
75431;BMP280;64127;51.488;5.462;2022-10-16T01:33:00;100832.31;;;16.32
75431;BMP280;64127;51.488;5.462;2022-10-16T01:35:43;100822.53;;;16.28
75431;BMP280;64127;51.488;5.462;2022-10-16T01:38:33;100828.81;;;16.33
75431;BMP280;64127;51.488;5.462;2022-10-16T01:41:22;100828.72;;;16.30
75431;BMP280;64127;51.488;5.462;2022-10-16T01:44:15;100841.16;;;16.34
75431;BMP280;64127;51.488;5.462;2022-10-16T01:46:52;100832.34;;;16.35
75431;BMP280;64127;51.488;5.462;2022-10-16T01:49:30;100832.34;;;16.35
75431;BMP280;64127;51.488;5.462;2022-10-16T01:52:09;100819.97;;;16.34
75431;BMP280;64127;51.488;5.462;2022-10-16T01:54:46;100822.66;;;16.36
75431;BMP280;64127;51.488;5.462;2022-10-16T01:57:20;100829.75;;;16.37
75431;BMP280;64127;51.488;5.462;2022-10-16T01:59:56;100830.56;;;16.34
75431;BMP280;64127;51.488;5.462;2022-10-16T02:02:30;100834.97;;;16.34
75431;BMP280;64127;51.488;5.462;2022-10-16T02:05:30;100826.91;;;16.28
75431;BMP280;64127;51.488;5.462;2022-10-16T02:08:04;100817.34;;;16.34
75431;BMP280;64127;51.488;5.462;2022-10-16T02:10:37;100821.72;;;16.34
75431;BMP280;64127;51.488;5.462;2022-10-16T02:13:17;100832.31;;;16.34
75431;BMP280;64127;51.488;5.462;2022-10-16T02:15:51;100819.94;;;16.31
75431;BMP280;64127;51.488;5.462;2022-10-16T02:18:23;100828.72;;;16.30
75431;BMP280;64127;51.488;5.462;2022-10-16T02:21:26;100787.75;;;16.07
75431;BMP280;64127;51.488;5.462;2022-10-16T02:27:17;100802.03;;;16.15
75431;BMP280;64127;51.488;5.462;2022-10-16T02:32:49;100833.88;;;16.21
75431;BMP280;64127;51.488;5.462;2022-10-16T02:35:24;100834.75;;;16.21
75431;BMP280;64127;51.488;5.462;2022-10-16T02:37:57;100837.34;;;16.20
75431;BMP280;64127;51.488;5.462;2022-10-16T02:40:30;100843.53;;;16.20
75431;BMP280;64127;51.488;5.462;2022-10-16T02:43:04;100833.81;;;16.18
75431;BMP280;64127;51.488;5.462;2022-10-16T02:45:37;100831.97;;;16.12
75431;BMP280;64127;51.488;5.462;2022-10-16T02:48:09;100826.66;;;16.12
75431;BMP280;64127;51.488;5.462;2022-10-16T02:50:41;100828.41;;;16.12
75431;BMP280;64127;51.488;5.462;2022-10-16T02:53:13;100833.66;;;16.09
75431;BMP280;64127;51.488;5.462;2022-10-16T02:55:45;100805.22;;;15.96
75431;BMP280;64127;51.488;5.462;2022-10-16T02:58:17;100830.06;;;16.07
75431;BMP280;64127;51.488;5.462;2022-10-16T03:00:48;100825.66;;;16.06
75431;BMP280;64127;51.488;5.462;2022-10-16T03:03:21;100829.13;;;16.03
75431;BMP280;64127;51.488;5.462;2022-10-16T03:05:53;100837.94;;;16.04
75431;BMP280;64127;51.488;5.462;2022-10-16T03:08:25;100842.28;;;15.99
75431;BMP280;64127;51.488;5.462;2022-10-16T03:10:57;100844.91;;;15.99
75431;BMP280;64127;51.488;5.462;2022-10-16T03:13:28;100840.47;;;15.98
75431;BMP280;64127;51.488;5.462;2022-10-16T03:16:00;100836.16;;;16.01
75431;BMP280;64127;51.488;5.462;2022-10-16T03:18:32;100833.47;;;16.00
75431;BMP280;64127;51.488;5.462;2022-10-16T03:21:04;100846.69;;;16.00
75431;BMP280;64127;51.488;5.462;2022-10-16T03:23:36;100856.41;;;16.01
75431;BMP280;64127;51.488;5.462;2022-10-16T03:26:08;100848.41;;;15.98
75431;BMP280;64127;51.488;5.462;2022-10-16T03:28:40;100851.97;;;16.00
75431;BMP280;64127;51.488;5.462;2022-10-16T03:31:12;100867.81;;;15.98
75431;BMP280;64127;51.488;5.462;2022-10-16T03:33:44;100866.88;;;15.95
75431;BMP280;64127;51.488;5.462;2022-10-16T03:36:16;100866.81;;;15.92
75431;BMP280;64127;51.488;5.462;2022-10-16T03:38:48;100859.69;;;15.88
75431;BMP280;64127;51.488;5.462;2022-10-16T03:41:20;100862.34;;;15.89
75431;BMP280;64127;51.488;5.462;2022-10-16T03:43:52;100865.81;;;15.85
75431;BMP280;64127;51.488;5.462;2022-10-16T03:46:24;100870.19;;;15.85
75431;BMP280;64127;51.488;5.462;2022-10-16T03:48:56;100877.22;;;15.84
75431;BMP280;64127;51.488;5.462;2022-10-16T03:51:28;100877.19;;;15.83
75431;BMP280;64127;51.488;5.462;2022-10-16T03:54:00;100878.09;;;15.83
75431;BMP280;64127;51.488;5.462;2022-10-16T03:56:32;100882.47;;;15.83
75431;BMP280;64127;51.488;5.462;2022-10-16T03:59:04;100878.00;;;15.79
75431;BMP280;64127;51.488;5.462;2022-10-16T04:01:36;100877.19;;;15.83
75431;BMP280;64127;51.488;5.462;2022-10-16T04:04:08;100883.31;;;15.79
75431;BMP280;64127;51.488;5.462;2022-10-16T04:06:40;100878.00;;;15.79
75431;BMP280;64127;51.488;5.462;2022-10-16T04:09:12;100880.66;;;15.79
75431;BMP280;64127;51.488;5.462;2022-10-16T04:11:44;100877.91;;;15.74
75431;BMP280;64127;51.488;5.462;2022-10-16T04:14:16;100879.69;;;15.75
75431;BMP280;64127;51.488;5.462;2022-10-16T04:16:48;100889.38;;;15.75
75431;BMP280;64127;51.488;5.462;2022-10-16T04:19:19;100898.16;;;15.73
75431;BMP280;64127;51.488;5.462;2022-10-16T04:21:51;100901.59;;;15.69
75431;BMP280;64127;51.488;5.462;2022-10-16T04:24:23;100898.09;;;15.70
75431;BMP280;64127;51.488;5.462;2022-10-16T04:26:55;100893.72;;;15.71
75431;BMP280;64127;51.488;5.462;2022-10-16T04:29:27;100895.44;;;15.70
75431;BMP280;64127;51.488;5.462;2022-10-16T04:31:59;100892.81;;;15.70
75431;BMP280;64127;51.488;5.462;2022-10-16T04:34:31;100886.69;;;15.73
75431;BMP280;64127;51.488;5.462;2022-10-16T04:37:03;100894.66;;;15.75
75431;BMP280;64127;51.488;5.462;2022-10-16T04:39:35;100899.94;;;15.75
75431;BMP280;64127;51.488;5.462;2022-10-16T04:42:07;100898.16;;;15.73
75431;BMP280;64127;51.488;5.462;2022-10-16T04:44:39;100910.53;;;15.75
75431;BMP280;64127;51.488;5.462;2022-10-16T04:47:12;100908.84;;;15.78
75431;BMP280;64127;51.488;5.462;2022-10-16T04:49:44;100914.06;;;15.77
75431;BMP280;64127;51.488;5.462;2022-10-16T04:52:16;100919.34;;;15.75
75431;BMP280;64127;51.488;5.462;2022-10-16T04:54:50;100923.75;;;15.75
75431;BMP280;64127;51.488;5.462;2022-10-16T04:57:22;100928.09;;;15.72
75431;BMP280;64127;51.488;5.462;2022-10-16T04:59:55;100911.38;;;15.73
75431;BMP280;64127;51.488;5.462;2022-10-16T05:02:27;100921.94;;;15.73
75431;BMP280;64127;51.488;5.462;2022-10-16T05:04:59;100929.94;;;15.77
75431;BMP280;64127;51.488;5.462;2022-10-16T05:07:31;100933.44;;;15.76
75431;BMP280;64127;51.488;5.462;2022-10-16T05:10:04;100945.84;;;15.80
75431;BMP280;64127;51.488;5.462;2022-10-16T05:12:36;100956.41;;;15.78
75431;BMP280;64127;51.488;5.462;2022-10-16T05:15:08;100954.66;;;15.79
75431;BMP280;64127;51.488;5.462;2022-10-16T05:17:40;100962.59;;;15.79
75431;BMP280;64127;51.488;5.462;2022-10-16T05:20:15;100960.81;;;15.79
75431;BMP280;64127;51.488;5.462;2022-10-16T05:22:47;100965.19;;;15.77
75431;BMP280;64127;51.488;5.462;2022-10-16T05:25:19;100951.03;;;15.73
75431;BMP280;64127;51.488;5.462;2022-10-16T05:27:51;100959.84;;;15.76
75431;BMP280;64127;51.488;5.462;2022-10-16T05:30:23;100955.41;;;15.73
75431;BMP280;64127;51.488;5.462;2022-10-16T05:32:55;100953.72;;;15.75
75431;BMP280;64127;51.488;5.462;2022-10-16T05:35:27;100960.75;;;15.75
75431;BMP280;64127;51.488;5.462;2022-10-16T05:37:59;100959.84;;;15.74
75431;BMP280;64127;51.488;5.462;2022-10-16T05:40:31;100967.78;;;15.76
75431;BMP280;64127;51.488;5.462;2022-10-16T05:43:03;100973.91;;;15.71
75431;BMP280;64127;51.488;5.462;2022-10-16T05:45:35;100972.94;;;15.69
75431;BMP280;64127;51.488;5.462;2022-10-16T05:48:07;100980.03;;;15.70
75431;BMP280;64127;51.488;5.462;2022-10-16T05:50:39;100994.94;;;15.68
75431;BMP280;64127;51.488;5.462;2022-10-16T05:53:11;100997.53;;;15.65
75431;BMP280;64127;51.488;5.462;2022-10-16T05:55:43;101002.84;;;15.67
75431;BMP280;64127;51.488;5.462;2022-10-16T05:58:15;101006.41;;;15.69
75431;BMP280;64127;51.488;5.462;2022-10-16T06:01:01;101010.00;;;15.72
75431;BMP280;64127;51.488;5.462;2022-10-16T06:03:34;101008.91;;;15.61
75431;BMP280;64127;51.488;5.462;2022-10-16T06:06:21;101015.94;;;15.61
75431;BMP280;64127;51.488;5.462;2022-10-16T06:08:55;101020.34;;;15.62
75431;BMP280;64127;51.488;5.462;2022-10-16T06:11:31;101027.41;;;15.63
75431;BMP280;64127;51.488;5.462;2022-10-16T06:14:03;101027.31;;;15.58
75431;BMP280;64127;51.488;5.462;2022-10-16T06:16:38;101033.53;;;15.60
75431;BMP280;64127;51.488;5.462;2022-10-16T06:19:10;101037.97;;;15.61
75431;BMP280;64127;51.488;5.462;2022-10-16T06:21:42;101045.03;;;15.62
75431;BMP280;64127;51.488;5.462;2022-10-16T06:24:14;101051.19;;;15.61
75431;BMP280;64127;51.488;5.462;2022-10-16T06:26:46;101050.34;;;15.64
75431;BMP280;64127;51.488;5.462;2022-10-16T06:29:18;101063.59;;;15.65
75431;BMP280;64127;51.488;5.462;2022-10-16T06:31:50;101065.38;;;15.66
75431;BMP280;64127;51.488;5.462;2022-10-16T06:34:22;101069.75;;;15.64
75431;BMP280;64127;51.488;5.462;2022-10-16T06:36:54;101069.75;;;15.64
75431;BMP280;64127;51.488;5.462;2022-10-16T06:39:27;101076.81;;;15.65
75431;BMP280;64127;51.488;5.462;2022-10-16T06:41:58;101075.88;;;15.63
75431;BMP280;64127;51.488;5.462;2022-10-16T06:44:35;101076.84;;;15.67
75431;BMP280;64127;51.488;5.462;2022-10-16T06:47:07;101088.31;;;15.67
75431;BMP280;64127;51.488;5.462;2022-10-16T06:49:39;101093.63;;;15.67
75431;BMP280;64127;51.488;5.462;2022-10-16T06:52:11;101098.06;;;15.70
75431;BMP280;64127;51.488;5.462;2022-10-16T06:54:43;101105.16;;;15.71
75431;BMP280;64127;51.488;5.462;2022-10-16T06:57:15;101107.81;;;15.72
75431;BMP280;64127;51.488;5.462;2022-10-16T06:59:47;101105.22;;;15.74
75431;BMP280;64127;51.488;5.462;2022-10-16T07:02:25;101108.84;;;15.79
75431;BMP280;64127;51.488;5.462;2022-10-16T07:04:57;101116.78;;;15.79
75431;BMP280;64127;51.488;5.462;2022-10-16T07:07:29;101120.31;;;15.80
75431;BMP280;64127;51.488;5.462;2022-10-16T07:10:01;101112.47;;;15.83
75431;BMP280;64127;51.488;5.462;2022-10-16T07:12:33;101120.44;;;15.84
75431;BMP280;64127;51.488;5.462;2022-10-16T07:15:06;101124.84;;;15.84
75431;BMP280;64127;51.488;5.462;2022-10-16T07:17:38;101130.19;;;15.85
75431;BMP280;64127;51.488;5.462;2022-10-16T07:20:10;101130.28;;;15.90
75431;BMP280;64127;51.488;5.462;2022-10-16T07:22:42;101132.25;;;15.98
75431;BMP280;64127;51.488;5.462;2022-10-16T07:25:14;101143.03;;;16.06
75431;BMP280;64127;51.488;5.462;2022-10-16T07:27:46;101151.09;;;16.12
75431;BMP280;64127;51.488;5.462;2022-10-16T07:30:18;101151.31;;;16.21
75431;BMP280;64127;51.488;5.462;2022-10-16T07:32:50;101157.75;;;16.34
75431;BMP280;64127;51.488;5.462;2022-10-16T07:35:22;101166.00;;;16.46
75431;BMP280;64127;51.488;5.462;2022-10-16T07:37:54;101168.13;;;16.60
75431;BMP280;64127;51.488;5.462;2022-10-16T07:40:26;101170.25;;;16.77
75431;BMP280;64127;51.488;5.462;2022-10-16T07:42:58;101163.47;;;16.91
75431;BMP280;64127;51.488;5.462;2022-10-16T07:45:30;101179.66;;;17.06
75431;BMP280;64127;51.488;5.462;2022-10-16T07:48:02;101181.56;;;17.13
75431;BMP280;64127;51.488;5.462;2022-10-16T07:50:34;101183.50;;;17.20
75431;BMP280;64127;51.488;5.462;2022-10-16T07:53:07;101192.53;;;17.31
75431;BMP280;64127;51.488;5.462;2022-10-16T07:55:39;101189.16;;;17.40
75431;BMP280;64127;51.488;5.462;2022-10-16T07:58:11;101192.91;;;17.49
75431;BMP280;64127;51.488;5.462;2022-10-16T08:00:43;101190.41;;;17.57
75431;BMP280;64127;51.488;5.462;2022-10-16T08:03:15;101200.25;;;17.62
75431;BMP280;64127;51.488;5.462;2022-10-16T08:05:47;101203.09;;;17.73
75431;BMP280;64127;51.488;5.462;2022-10-16T08:08:19;101205.75;;;17.74
75431;BMP280;64127;51.488;5.462;2022-10-16T08:10:52;101209.41;;;17.80
75431;BMP280;64127;51.488;5.462;2022-10-16T08:13:24;101209.41;;;17.80
75431;BMP280;64127;51.488;5.462;2022-10-16T08:15:56;101222.75;;;17.84
75431;BMP280;64127;51.488;5.462;2022-10-16T08:18:28;101227.34;;;17.94
75431;BMP280;64127;51.488;5.462;2022-10-16T08:21:00;101231.91;;;18.03
75431;BMP280;64127;51.488;5.462;2022-10-16T08:23:33;101224.06;;;18.09
75431;BMP280;64127;51.488;5.462;2022-10-16T08:26:07;101215.13;;;18.04
75431;BMP280;64127;51.488;5.462;2022-10-16T08:28:40;101235.69;;;18.17
75431;BMP280;64127;51.488;5.462;2022-10-16T08:31:14;101222.44;;;18.17
75431;BMP280;64127;51.488;5.462;2022-10-16T08:33:48;101240.19;;;18.21
75431;BMP280;64127;51.488;5.462;2022-10-16T08:36:20;101243.94;;;18.32
75431;BMP280;64127;51.488;5.462;2022-10-16T08:38:52;101242.34;;;18.45
75431;BMP280;64127;51.488;5.462;2022-10-16T08:45:30;101257.53;;;18.52
75431;BMP280;64127;51.488;5.462;2022-10-16T08:48:26;101263.03;;;18.62
75431;BMP280;64127;51.488;5.462;2022-10-16T08:51:02;101262.25;;;18.69
75431;BMP280;64127;51.488;5.462;2022-10-16T08:53:53;101267.66;;;18.76
75431;BMP280;64127;51.488;5.462;2022-10-16T08:56:26;101273.09;;;18.83
75431;BMP280;64127;51.488;5.462;2022-10-16T08:58:59;101267.81;;;18.88
75431;BMP280;64127;51.488;5.462;2022-10-16T09:01:47;101267.91;;;18.94
75431;BMP280;64127;51.488;5.462;2022-10-16T09:04:52;101267.97;;;18.97
75431;BMP280;64127;51.488;5.462;2022-10-16T09:07:52;101270.63;;;18.98
75431;BMP280;64127;51.488;5.462;2022-10-16T09:11:26;101272.56;;;19.10
75431;BMP280;64127;51.488;5.462;2022-10-16T09:17:24;101277.25;;;19.28
75431;BMP280;64127;51.488;5.462;2022-10-16T09:25:38;101290.91;;;19.56
75431;BMP280;64127;51.488;5.462;2022-10-16T09:28:11;101288.22;;;19.53
75431;BMP280;64127;51.488;5.462;2022-10-16T09:30:44;101298.03;;;19.57
75431;BMP280;64127;51.488;5.462;2022-10-16T09:33:21;101295.44;;;19.63
75431;BMP280;64127;51.488;5.462;2022-10-16T09:35:56;101293.75;;;19.73
75431;BMP280;64127;51.488;5.462;2022-10-16T09:38:36;101292.03;;;19.75
75431;BMP280;64127;51.488;5.462;2022-10-16T09:41:20;101295.50;;;19.69
75431;BMP280;64127;51.488;5.462;2022-10-16T09:43:59;101301.69;;;19.67
75431;BMP280;64127;51.488;5.462;2022-10-16T09:46:35;101284.75;;;19.60
75431;BMP280;64127;51.488;5.462;2022-10-16T09:49:26;101298.16;;;19.69
75431;BMP280;64127;51.488;5.462;2022-10-16T09:52:15;101301.75;;;19.73
75431;BMP280;64127;51.488;5.462;2022-10-16T09:54:51;101297.44;;;19.83
75431;BMP280;64127;51.488;5.462;2022-10-16T09:57:24;101302.75;;;19.83
75431;BMP280;64127;51.488;5.462;2022-10-16T09:59:58;101298.31;;;19.83
75431;BMP280;64127;51.488;5.462;2022-10-16T10:02:35;101309.06;;;19.94
75431;BMP280;64127;51.488;5.462;2022-10-16T10:05:29;101306.41;;;19.94
75431;BMP280;64127;51.488;5.462;2022-10-16T10:08:02;101311.72;;;19.94
75431;BMP280;64127;51.488;5.462;2022-10-16T10:10:42;101314.44;;;19.97
75431;BMP280;64127;51.488;5.462;2022-10-16T10:13:22;101306.50;;;20.00
75431;BMP280;64127;51.488;5.462;2022-10-16T10:15:55;101307.44;;;20.08
75431;BMP280;64127;51.488;5.462;2022-10-16T10:18:27;101307.47;;;20.09
75431;BMP280;64127;51.488;5.462;2022-10-16T10:21:01;101316.28;;;20.04
75431;BMP280;64127;51.488;5.462;2022-10-16T10:23:38;101326.94;;;20.02
75431;BMP280;64127;51.488;5.462;2022-10-16T10:26:24;101310.97;;;20.05
75431;BMP280;64127;51.488;5.462;2022-10-16T10:29:23;101329.72;;;20.16
75431;BMP280;64127;51.488;5.462;2022-10-16T10:35:22;101326.50;;;20.44
75431;BMP280;64127;51.488;5.462;2022-10-16T10:55:57;101333.91;;;20.85
75431;BMP280;64127;51.488;5.462;2022-10-16T11:02:23;101340.97;;;20.77
75431;BMP280;64127;51.488;5.462;2022-10-16T11:05:30;101342.78;;;20.81
75431;BMP280;64127;51.488;5.462;2022-10-16T11:08:11;101337.50;;;20.85
75431;BMP280;64127;51.488;5.462;2022-10-16T11:10:59;101343.59;;;20.70
75431;BMP280;64127;51.488;5.462;2022-10-16T11:13:52;101338.22;;;20.64
75431;BMP280;64127;51.488;5.462;2022-10-16T11:16:35;101339.13;;;20.68
75431;BMP280;64127;51.488;5.462;2022-10-16T11:19:34;101339.97;;;20.65
75431;BMP280;64127;51.488;5.462;2022-10-16T11:22:37;101347.06;;;20.62
75431;BMP280;64127;51.488;5.462;2022-10-16T11:25:31;101343.56;;;20.67
75431;BMP280;64127;51.488;5.462;2022-10-16T11:28:27;101339.06;;;20.62
75431;BMP280;64127;51.488;5.462;2022-10-16T11:31:15;101345.22;;;20.53
75431;BMP280;64127;51.488;5.462;2022-10-16T11:34:05;101346.88;;;20.41
75431;BMP280;64127;51.488;5.462;2022-10-16T11:37:12;101345.78;;;20.25
75431;BMP280;64127;51.488;5.462;2022-10-16T11:39:46;101344.91;;;20.24
75431;BMP280;64127;51.488;5.462;2022-10-16T11:42:37;101344.13;;;20.30
75431;BMP280;64127;51.488;5.462;2022-10-16T11:45:41;101340.63;;;20.37
75431;BMP280;64127;51.488;5.462;2022-10-16T11:51:39;101348.09;;;20.81
75431;BMP280;64127;51.488;5.462;2022-10-16T11:57:36;101356.06;;;20.79
75431;BMP280;64127;51.488;5.462;2022-10-16T12:00:24;101358.72;;;20.74
75431;BMP280;64127;51.488;5.462;2022-10-16T12:07:05;101353.38;;;20.73
75431;BMP280;64127;51.488;5.462;2022-10-16T12:09:40;101344.59;;;20.85
75431;BMP280;64127;51.488;5.462;2022-10-16T12:15:32;101346.31;;;20.78
75431;BMP280;64127;51.488;5.462;2022-10-16T12:18:25;101360.53;;;20.79
75431;BMP280;64127;51.488;5.462;2022-10-16T12:20:58;101364.13;;;20.87
75431;BMP280;64127;51.488;5.462;2022-10-16T12:23:54;101349.19;;;21.08
75431;BMP280;64127;51.488;5.462;2022-10-16T12:26:38;101341.38;;;21.37
75431;BMP280;64127;51.488;5.462;2022-10-16T12:31:54;101348.78;;;21.91
75431;BMP280;64127;51.488;5.462;2022-10-16T12:34:42;101347.03;;;22.16
75431;BMP280;64127;51.488;5.462;2022-10-16T12:37:28;101347.09;;;22.34
75431;BMP280;64127;51.488;5.462;2022-10-16T12:40:35;101350.66;;;22.39
75431;BMP280;64127;51.488;5.462;2022-10-16T12:46:39;101337.28;;;22.54
75431;BMP280;64127;51.488;5.462;2022-10-16T12:51:47;101337.31;;;22.76
75431;BMP280;64127;51.488;5.462;2022-10-16T12:54:30;101336.41;;;23.07
75431;BMP280;64127;51.488;5.462;2022-10-16T13:09:51;101327.25;;;23.78
75431;BMP280;64127;51.488;5.462;2022-10-16T13:12:56;101325.56;;;23.58
75431;BMP280;64127;51.488;5.462;2022-10-16T13:18:42;101337.28;;;23.13
75431;BMP280;64127;51.488;5.462;2022-10-16T13:21:36;101336.41;;;23.01
75431;BMP280;64127;51.488;5.462;2022-10-16T13:24:29;101341.78;;;22.83
75431;BMP280;64127;51.488;5.462;2022-10-16T13:27:24;101344.47;;;22.72
75431;BMP280;64127;51.488;5.462;2022-10-16T13:30:23;101348.03;;;22.69
75431;BMP280;64127;51.488;5.462;2022-10-16T13:33:07;101338.22;;;22.68
75431;BMP280;64127;51.488;5.462;2022-10-16T13:35:56;101355.16;;;22.67
75431;BMP280;64127;51.488;5.462;2022-10-16T13:38:35;101357.78;;;22.64
75431;BMP280;64127;51.488;5.462;2022-10-16T13:41:17;101358.69;;;22.48
75431;BMP280;64127;51.488;5.462;2022-10-16T13:43:52;101355.97;;;22.30
75431;BMP280;64127;51.488;5.462;2022-10-16T13:46:27;101365.78;;;22.25
75431;BMP280;64127;51.488;5.462;2022-10-16T13:49:12;101363.09;;;22.14
75431;BMP280;64127;51.488;5.462;2022-10-16T13:51:59;101363.06;;;22.07
75431;BMP280;64127;51.488;5.462;2022-10-16T13:54:31;101361.25;;;22.03
75431;BMP280;64127;51.488;5.462;2022-10-16T13:57:06;101361.25;;;21.97
75431;BMP280;64127;51.488;5.462;2022-10-16T13:59:58;101370.06;;;21.81
75431;BMP280;64127;51.488;5.462;2022-10-16T14:02:38;101366.47;;;21.75
75431;BMP280;64127;51.488;5.462;2022-10-16T14:05:14;101370.91;;;21.67
75431;BMP280;64127;51.488;5.462;2022-10-16T14:07:50;101376.22;;;21.60
75431;BMP280;64127;51.488;5.462;2022-10-16T14:10:33;101379.75;;;21.56
75431;BMP280;64127;51.488;5.462;2022-10-16T14:13:07;101374.41;;;21.53
75431;BMP280;64127;51.488;5.462;2022-10-16T14:15:39;101377.91;;;21.46
75431;BMP280;64127;51.488;5.462;2022-10-16T14:18:20;101378.81;;;21.43
75431;BMP280;64127;51.488;5.462;2022-10-16T14:20:53;101379.69;;;21.42
75431;BMP280;64127;51.488;5.462;2022-10-16T14:23:38;101368.13;;;21.43
75431;BMP280;64127;51.488;5.462;2022-10-16T14:28:46;101368.13;;;21.46
75431;BMP280;64127;51.488;5.462;2022-10-16T14:31:33;101370.78;;;21.45
75431;BMP280;64127;51.488;5.462;2022-10-16T14:34:36;101369.88;;;21.41
75431;BMP280;64127;51.488;5.462;2022-10-16T14:37:27;101350.31;;;21.42
75431;BMP280;64127;51.488;5.462;2022-10-16T14:40:02;101346.75;;;21.45
75431;BMP280;64127;51.488;5.462;2022-10-16T14:42:35;101347.69;;;21.53
75431;BMP280;64127;51.488;5.462;2022-10-16T14:45:10;101348.63;;;21.65
75431;BMP280;64127;51.488;5.462;2022-10-16T14:47:52;101349.63;;;21.87
75431;BMP280;64127;51.488;5.462;2022-10-16T14:50:25;101352.34;;;21.96
75431;BMP280;64127;51.488;5.462;2022-10-16T14:52:58;101357.72;;;22.04
75431;BMP280;64127;51.488;5.462;2022-10-16T14:55:30;101363.94;;;22.06
75431;BMP280;64127;51.488;5.462;2022-10-16T14:58:02;101363.09;;;22.17
75431;BMP280;64127;51.488;5.462;2022-10-16T15:00:34;101352.44;;;22.40
75431;BMP280;64127;51.488;5.462;2022-10-16T15:03:06;101343.59;;;22.81
75431;BMP280;64127;51.488;5.462;2022-10-16T15:05:38;101340.88;;;22.93
75431;BMP280;64127;51.488;5.462;2022-10-16T15:08:10;101338.22;;;22.93
75431;BMP280;64127;51.488;5.462;2022-10-16T15:10:44;101346.25;;;22.87
75431;BMP280;64127;51.488;5.462;2022-10-16T15:13:16;101350.72;;;22.72
75431;BMP280;64127;51.488;5.462;2022-10-16T15:15:48;101338.19;;;22.59
75431;BMP280;64127;51.488;5.462;2022-10-16T15:18:21;101335.53;;;22.49
75431;BMP280;64127;51.488;5.462;2022-10-16T15:20:53;101341.72;;;22.37
75431;BMP280;64127;51.488;5.462;2022-10-16T15:23:25;101347.97;;;22.32
75431;BMP280;64127;51.488;5.462;2022-10-16T15:26:02;101339.03;;;22.20
75431;BMP280;64127;51.488;5.462;2022-10-16T15:28:34;101349.72;;;22.13
75431;BMP280;64127;51.488;5.462;2022-10-16T15:31:07;101351.47;;;22.06
75431;BMP280;64127;51.488;5.462;2022-10-16T15:33:39;101354.13;;;21.99
75431;BMP280;64127;51.488;5.462;2022-10-16T15:36:11;101351.47;;;21.91
75431;BMP280;64127;51.488;5.462;2022-10-16T15:38:43;101352.28;;;21.84
75431;BMP280;64127;51.488;5.462;2022-10-16T15:41:15;101341.59;;;21.78
75431;BMP280;64127;51.488;5.462;2022-10-16T15:43:51;101322.84;;;21.75
75431;BMP280;64127;51.488;5.462;2022-10-16T15:46:24;101331.72;;;21.68
75431;BMP280;64127;51.488;5.462;2022-10-16T15:48:58;101343.31;;;21.64
75431;BMP280;64127;51.488;5.462;2022-10-16T15:51:30;101353.06;;;21.59
75431;BMP280;64127;51.488;5.462;2022-10-16T15:54:05;101359.28;;;21.55
75431;BMP280;64127;51.488;5.462;2022-10-16T15:56:37;101371.72;;;21.54
75431;BMP280;64127;51.488;5.462;2022-10-16T15:59:09;101369.06;;;21.53
75431;BMP280;64127;51.488;5.462;2022-10-16T16:01:41;101342.34;;;21.50
75431;BMP280;64127;51.488;5.462;2022-10-16T16:04:13;101328.97;;;21.45
75431;BMP280;64127;51.488;5.462;2022-10-16T16:07:05;101354.75;;;21.39
75431;BMP280;64127;51.488;5.462;2022-10-16T16:09:39;101350.28;;;21.36
75431;BMP280;64127;51.488;5.462;2022-10-16T16:12:10;101340.47;;;21.32
75431;BMP280;64127;51.488;5.462;2022-10-16T16:14:42;101331.59;;;21.30
75431;BMP280;64127;51.488;5.462;2022-10-16T16:17:17;101344.88;;;21.27
75431;BMP280;64127;51.488;5.462;2022-10-16T16:19:50;101351.09;;;21.24
75431;BMP280;64127;51.488;5.462;2022-10-16T16:22:22;101351.97;;;21.22
75431;BMP280;64127;51.488;5.462;2022-10-16T16:24:54;101344.84;;;21.21
75431;BMP280;64127;51.488;5.462;2022-10-16T16:27:26;101346.63;;;21.16